Terminal Aerodrome Forecast
Issued by NWS

Home | Current Version | Previous Version | Text Only | Print | Product List | Glossary On
Versions: 1 2 3 4 5 6 7 8 9 10 11 12 13
659
FTUS44 KTSA 140520
TAFFYV
TAF
KFYV 140520Z 1406/1506 15010KT P6SM OVC040
     FM141200 17008KT 4SM -FZDZ OVC015
     FM141600 16007KT 4SM -DZ BR OVC007
     FM150000 VRB03KT 4SM BR OVC010=

USA.gov is the U.S. government's official web portal to all federal, state and local government web resources and services.